createdAt,value
2022-10-05T00:00:01.424Z,7.18
2022-10-05T00:03:12.943Z,7.10
2022-10-05T00:06:19.823Z,7.20
2022-10-05T00:09:31.523Z,7.75
2022-10-05T00:12:39.641Z,7.80
2022-10-05T00:15:47.328Z,7.68
2022-10-05T00:19:00.978Z,7.57
2022-10-05T00:22:11.790Z,7.43
2022-10-05T00:25:23.134Z,7.65
2022-10-05T00:28:33.591Z,6.97
2022-10-05T00:31:41.535Z,6.97
2022-10-05T00:34:50.294Z,6.85
2022-10-05T00:37:59.498Z,7.30
2022-10-05T00:41:24.722Z,7.12
2022-10-05T00:44:37.985Z,6.95
2022-10-05T00:47:55.669Z,7.45
2022-10-05T00:51:31.348Z,7.40
2022-10-05T00:54:50.062Z,7.12
2022-10-05T00:57:58.437Z,7.28
2022-10-05T01:01:15.505Z,7.25
2022-10-05T01:05:12.637Z,7.10
2022-10-05T01:08:40.094Z,7.25
2022-10-05T01:12:15.875Z,7.28
2022-10-05T01:15:29.692Z,6.65
2022-10-05T01:18:52.457Z,6.40
2022-10-05T01:22:09.974Z,6.97
2022-10-05T01:25:41.210Z,6.57
2022-10-05T01:28:58.494Z,6.75
2022-10-05T01:32:25.550Z,7.03
2022-10-05T01:35:53.313Z,7.10
2022-10-05T01:39:17.126Z,7.70
2022-10-05T01:42:57.804Z,7.22
2022-10-05T01:49:57.169Z,6.90
2022-10-05T01:53:27.296Z,7.22
2022-10-05T01:56:42.881Z,8.00
2022-10-05T02:00:19.030Z,7.43
2022-10-05T02:03:52.770Z,7.53
2022-10-05T02:07:03.220Z,7.75
2022-10-05T02:10:34.313Z,7.60
2022-10-05T02:13:54.729Z,7.82
2022-10-05T02:17:10.296Z,8.07
2022-10-05T02:20:28.073Z,8.07
2022-10-05T02:23:38.679Z,8.20
2022-10-05T02:26:49.467Z,8.20
2022-10-05T02:33:22.851Z,8.00
2022-10-05T02:36:37.360Z,8.80
2022-10-05T02:40:00.238Z,9.07
2022-10-05T02:43:13.484Z,9.45
2022-10-05T02:46:32.871Z,8.93
2022-10-05T02:50:17.132Z,8.75
2022-10-05T02:53:28.537Z,8.43
2022-10-05T02:56:49.547Z,8.30
2022-10-05T03:00:06.091Z,8.75
2022-10-05T03:03:38.358Z,8.70
2022-10-05T03:07:18.035Z,8.35
2022-10-05T03:10:42.463Z,8.20
2022-10-05T03:14:14.147Z,8.35
2022-10-05T03:17:31.480Z,8.73
2022-10-05T03:21:01.377Z,8.35
2022-10-05T03:24:13.969Z,8.63
2022-10-05T03:27:47.104Z,8.73
2022-10-05T03:31:17.218Z,8.80
2022-10-05T03:35:01.456Z,8.63
2022-10-05T03:38:27.327Z,9.60
2022-10-05T03:41:49.453Z,9.05
2022-10-05T03:45:24.301Z,8.43
2022-10-05T03:48:35.954Z,8.88
2022-10-05T03:52:15.865Z,8.45
2022-10-05T03:55:37.251Z,8.77
2022-10-05T03:58:52.183Z,8.85
2022-10-05T04:02:09.206Z,8.57
2022-10-05T04:05:20.059Z,8.80
2022-10-05T04:09:13.103Z,9.18
2022-10-05T04:12:43.719Z,9.10
2022-10-05T04:16:04.759Z,8.30
2022-10-05T04:19:29.995Z,8.75
2022-10-05T04:22:42.250Z,8.88
2022-10-05T04:26:01.653Z,8.82
2022-10-05T04:29:18.246Z,9.13
2022-10-05T04:32:45.389Z,8.35
2022-10-05T04:36:03.343Z,8.82
2022-10-05T04:40:08.160Z,9.25
2022-10-05T04:43:42.996Z,8.80
2022-10-05T04:46:58.880Z,8.50
2022-10-05T04:50:29.709Z,12.20
2022-10-05T04:53:58.648Z,9.25
2022-10-05T04:57:12.175Z,9.35
2022-10-05T05:00:26.294Z,8.95
2022-10-05T05:04:10.802Z,10.73
2022-10-05T05:07:36.367Z,10.90
2022-10-05T05:10:52.055Z,11.73
2022-10-05T05:14:00.580Z,12.07
2022-10-05T05:17:35.896Z,11.52
2022-10-05T05:21:04.668Z,13.27
2022-10-05T05:24:38.991Z,12.80
2022-10-05T05:27:54.620Z,11.02
2022-10-05T05:31:10.941Z,11.55
2022-10-05T05:34:46.089Z,11.55
2022-10-05T05:38:03.173Z,11.50
2022-10-05T05:41:12.814Z,11.85
2022-10-05T05:44:26.989Z,10.80
2022-10-05T05:47:37.939Z,10.80
2022-10-05T05:51:06.056Z,10.13
2022-10-05T05:54:39.726Z,10.93
2022-10-05T05:57:56.901Z,11.07
2022-10-05T06:01:33.411Z,9.90
2022-10-05T06:04:46.165Z,10.25
2022-10-05T06:07:53.001Z,11.30
2022-10-05T06:11:14.883Z,11.55
2022-10-05T06:14:37.771Z,11.60
2022-10-05T06:17:47.815Z,11.57
2022-10-05T06:21:00.141Z,11.15
2022-10-05T06:24:16.178Z,10.75
2022-10-05T06:27:37.457Z,9.07
2022-10-05T06:30:47.623Z,8.88
2022-10-05T06:33:54.130Z,8.55
2022-10-05T06:37:09.469Z,8.68
2022-10-05T06:40:22.191Z,8.10
2022-10-05T06:43:39.107Z,8.77
2022-10-05T06:47:04.470Z,9.02
2022-10-05T06:50:18.634Z,8.20
2022-10-05T06:53:39.015Z,9.32
2022-10-05T06:56:52.623Z,8.68
2022-10-05T07:00:15.789Z,9.07
2022-10-05T07:03:50.268Z,8.27
2022-10-05T07:06:59.948Z,8.80
2022-10-05T07:10:17.592Z,8.77
2022-10-05T07:13:20.983Z,8.15
2022-10-05T07:16:43.631Z,8.30
2022-10-05T07:19:58.193Z,7.97
2022-10-05T07:23:40.890Z,8.30
2022-10-05T07:26:57.368Z,7.62
2022-10-05T07:30:08.171Z,7.00
2022-10-05T07:37:10.004Z,5.90
2022-10-05T07:40:25.928Z,5.25
2022-10-05T07:44:02.104Z,4.85
2022-10-05T07:47:31.299Z,4.32
2022-10-05T07:50:49.437Z,4.78
2022-10-05T07:54:10.512Z,4.87
2022-10-05T07:57:39.616Z,5.03
2022-10-05T08:00:48.470Z,5.00
2022-10-05T08:07:05.026Z,5.15
2022-10-05T08:10:15.229Z,5.40
2022-10-05T08:13:30.424Z,5.50
2022-10-05T08:16:38.936Z,5.75
2022-10-05T08:19:59.670Z,5.65
2022-10-05T08:23:19.979Z,5.60
2022-10-05T08:26:31.750Z,5.70
2022-10-05T08:30:07.462Z,5.78
2022-10-05T08:33:17.846Z,7.05
2022-10-05T08:36:44.073Z,6.97
2022-10-05T08:40:16.191Z,7.20
2022-10-05T08:43:55.754Z,7.70
2022-10-05T08:47:13.043Z,7.68
2022-10-05T08:50:42.320Z,8.40
2022-10-05T08:53:55.751Z,8.57
2022-10-05T08:57:12.477Z,7.75
2022-10-05T09:00:21.492Z,8.10
2022-10-05T09:07:05.980Z,7.00
2022-10-05T09:10:40.337Z,6.60
2022-10-05T09:14:04.885Z,6.80
2022-10-05T09:17:39.509Z,6.15
2022-10-05T09:21:22.175Z,7.82
2022-10-05T09:24:55.737Z,8.02
2022-10-05T09:28:23.716Z,7.72
2022-10-05T09:31:36.397Z,8.30
2022-10-05T09:34:55.708Z,7.15
2022-10-05T09:38:26.413Z,7.45
2022-10-05T09:41:45.227Z,6.20
2022-10-05T09:45:21.233Z,5.72
2022-10-05T09:49:12.094Z,5.32
2022-10-05T09:52:54.627Z,5.53
2022-10-05T09:56:20.673Z,5.65
2022-10-05T09:59:29.570Z,5.60
2022-10-05T10:03:15.360Z,6.22
2022-10-05T10:06:57.171Z,6.25
2022-10-05T10:10:32.670Z,5.68
2022-10-05T10:13:53.834Z,5.53
2022-10-05T10:16:58.176Z,5.95
2022-10-05T10:20:12.882Z,5.85
2022-10-05T10:23:17.009Z,5.78
2022-10-05T10:26:50.973Z,5.50
2022-10-05T10:30:12.351Z,5.05
2022-10-05T10:33:40.731Z,5.40
2022-10-05T10:37:07.493Z,6.20
2022-10-05T10:40:36.324Z,6.18
2022-10-05T10:44:12.855Z,5.10
2022-10-05T10:47:35.074Z,5.20
2022-10-05T10:51:06.526Z,5.50
2022-10-05T10:54:28.087Z,5.37
2022-10-05T10:58:01.912Z,4.80
2022-10-05T11:01:12.611Z,5.10
2022-10-05T11:04:21.878Z,5.45
2022-10-05T11:10:54.855Z,5.30
2022-10-05T11:14:03.067Z,5.35
2022-10-05T11:17:15.635Z,4.85
2022-10-05T11:20:24.682Z,5.15
2022-10-05T11:23:46.407Z,4.57
2022-10-05T11:27:12.980Z,4.00
2022-10-05T11:30:23.172Z,4.20
2022-10-05T11:33:32.726Z,4.43
2022-10-05T11:36:58.801Z,4.85
2022-10-05T11:40:42.743Z,5.12
2022-10-05T11:43:49.940Z,5.03
2022-10-05T11:47:22.172Z,5.40
2022-10-05T11:51:06.949Z,6.57
2022-10-05T11:54:38.270Z,5.70
2022-10-05T11:57:51.331Z,5.82
2022-10-05T12:01:05.457Z,5.90
2022-10-05T12:04:43.114Z,6.03
2022-10-05T12:08:06.450Z,5.80
2022-10-05T12:11:33.680Z,5.85
2022-10-05T12:15:02.250Z,5.72
2022-10-05T12:18:18.786Z,5.75
2022-10-05T12:21:39.668Z,6.18
2022-10-05T12:25:02.924Z,5.50
2022-10-05T12:28:17.374Z,5.47
2022-10-05T12:31:30.317Z,5.72
2022-10-05T12:35:01.737Z,4.93
2022-10-05T12:38:17.224Z,4.85
2022-10-05T12:41:29.070Z,5.20
2022-10-05T12:45:00.435Z,6.35
2022-10-05T12:48:37.710Z,6.15
2022-10-05T12:51:50.636Z,4.95
2022-10-05T12:55:22.031Z,6.45
2022-10-05T12:58:47.636Z,5.30
2022-10-05T13:01:50.923Z,4.90
2022-10-05T13:05:23.774Z,4.95
2022-10-05T13:08:38.349Z,3.83
2022-10-05T13:11:52.388Z,4.82
2022-10-05T13:15:18.465Z,3.92
2022-10-05T13:18:38.715Z,3.97
2022-10-05T13:21:58.178Z,3.55
2022-10-05T13:25:26.563Z,2.60
2022-10-05T13:28:50.315Z,2.22
2022-10-05T13:31:57.455Z,2.35
2022-10-05T13:35:25.823Z,1.77
2022-10-05T13:38:34.604Z,1.92
2022-10-05T13:42:05.145Z,2.00
2022-10-05T13:45:22.686Z,2.30
2022-10-05T13:48:55.131Z,2.53
2022-10-05T13:52:15.674Z,2.20
2022-10-05T13:55:29.823Z,2.35
2022-10-05T13:58:51.159Z,2.80
2022-10-05T14:02:05.828Z,2.65
2022-10-05T14:05:23.526Z,2.28
2022-10-05T14:08:35.925Z,2.42
2022-10-05T14:12:06.264Z,2.55
2022-10-05T14:15:31.913Z,2.70
2022-10-05T14:18:39.456Z,2.95
2022-10-05T14:22:06.753Z,2.60
2022-10-05T14:25:20.270Z,2.78
2022-10-05T14:28:31.850Z,3.75
2022-10-05T14:31:38.070Z,2.35
2022-10-05T14:34:55.587Z,2.87
2022-10-05T14:38:03.194Z,2.75
2022-10-05T14:41:28.606Z,2.55
2022-10-05T14:47:46.679Z,2.90
2022-10-05T14:51:03.475Z,3.20
2022-10-05T14:54:34.858Z,2.85
2022-10-05T14:57:57.686Z,3.08
2022-10-05T15:01:21.073Z,2.85
2022-10-05T15:04:33.248Z,2.87
2022-10-05T15:07:44.919Z,3.10
2022-10-05T15:10:58.219Z,2.40
2022-10-05T15:14:06.898Z,3.80
2022-10-05T15:17:20.508Z,3.35
2022-10-05T15:20:53.958Z,2.65
2022-10-05T15:24:06.231Z,2.72
2022-10-05T15:27:24.833Z,2.80
2022-10-05T15:30:35.140Z,3.15
2022-10-05T15:33:55.601Z,2.90
2022-10-05T15:37:36.597Z,3.15
2022-10-05T15:41:23.348Z,3.00
2022-10-05T15:44:31.939Z,2.83
2022-10-05T15:47:57.894Z,2.95
2022-10-05T15:51:30.187Z,3.08
2022-10-05T15:58:13.112Z,2.67
2022-10-05T16:01:19.893Z,2.97
2022-10-05T16:04:48.652Z,3.00
2022-10-05T16:08:13.413Z,2.83
2022-10-05T16:11:43.284Z,2.65
2022-10-05T16:15:16.499Z,3.45
2022-10-05T16:18:43.752Z,3.00
2022-10-05T16:22:26.902Z,3.47
2022-10-05T16:26:03.498Z,3.08
2022-10-05T16:29:22.368Z,3.60
2022-10-05T16:32:39.624Z,2.92
2022-10-05T16:35:57.600Z,2.80
2022-10-05T16:40:01.504Z,2.53
2022-10-05T16:43:46.417Z,2.67
2022-10-05T16:47:12.830Z,2.90
2022-10-05T16:50:45.060Z,3.10
2022-10-05T16:54:26.061Z,3.50
2022-10-05T16:57:37.448Z,3.65
2022-10-05T17:00:53.411Z,3.67
2022-10-05T17:04:01.804Z,3.50
2022-10-05T17:07:23.511Z,3.35
2022-10-05T17:10:34.855Z,3.80
2022-10-05T17:13:56.343Z,3.83
2022-10-05T17:17:16.346Z,3.20
2022-10-05T17:20:54.264Z,3.90
2022-10-05T17:24:26.080Z,3.95
2022-10-05T17:27:51.153Z,3.60
2022-10-05T17:31:16.897Z,4.30
2022-10-05T17:34:24.297Z,5.07
2022-10-05T17:37:36.599Z,4.90
2022-10-05T17:41:22.941Z,5.07
2022-10-05T17:44:29.582Z,5.47
2022-10-05T17:47:58.872Z,5.50
2022-10-05T17:51:35.595Z,6.10
2022-10-05T17:55:06.190Z,7.00
2022-10-05T17:58:28.655Z,6.05
2022-10-05T18:01:42.222Z,6.22
2022-10-05T18:05:13.658Z,5.72
2022-10-05T18:08:32.517Z,5.68
2022-10-05T18:11:45.643Z,6.32
2022-10-05T18:15:03.721Z,6.07
2022-10-05T18:18:36.721Z,5.93
2022-10-05T18:22:05.845Z,6.60
2022-10-05T18:25:31.894Z,6.15
2022-10-05T18:29:15.284Z,6.70
2022-10-05T18:32:55.265Z,6.00
2022-10-05T18:36:11.550Z,7.07
2022-10-05T18:39:53.503Z,6.72
2022-10-05T18:43:29.027Z,6.45
2022-10-05T18:46:48.014Z,6.80
2022-10-05T18:50:22.215Z,7.05
2022-10-05T18:53:47.511Z,7.22
2022-10-05T18:56:54.402Z,8.25
2022-10-05T19:00:09.565Z,7.50
2022-10-05T19:03:30.564Z,7.78
2022-10-05T19:06:47.298Z,7.70
2022-10-05T19:10:06.470Z,7.65
2022-10-05T19:13:35.118Z,7.93
2022-10-05T19:16:52.324Z,7.37
2022-10-05T19:20:17.607Z,7.82
2022-10-05T19:23:42.193Z,8.13
2022-10-05T19:27:04.070Z,8.20
2022-10-05T19:30:32.489Z,8.45
2022-10-05T19:33:58.694Z,8.45
2022-10-05T19:37:20.608Z,8.82
2022-10-05T19:40:34.945Z,8.95
2022-10-05T19:43:52.396Z,8.73
2022-10-05T19:47:28.722Z,9.88
2022-10-05T19:50:36.074Z,9.25
2022-10-05T19:53:47.726Z,9.85
2022-10-05T19:56:54.625Z,9.50
2022-10-05T20:00:00.755Z,8.73
2022-10-05T20:03:18.866Z,9.40
2022-10-05T20:06:28.192Z,9.40
2022-10-05T20:10:02.833Z,9.70
2022-10-05T20:13:20.982Z,8.98
2022-10-05T20:16:48.407Z,9.05
2022-10-05T20:20:12.475Z,9.20
2022-10-05T20:23:25.949Z,9.68
2022-10-05T20:27:03.584Z,8.93
2022-10-05T20:30:12.103Z,9.20
2022-10-05T20:33:17.362Z,9.07
2022-10-05T20:36:21.765Z,9.20
2022-10-05T20:39:27.075Z,9.35
2022-10-05T20:42:33.332Z,12.40
2022-10-05T20:45:44.782Z,13.57
2022-10-05T20:48:54.098Z,11.98
2022-10-05T20:52:01.224Z,10.90
2022-10-05T20:55:09.535Z,10.55
2022-10-05T20:58:18.066Z,10.98
2022-10-05T21:01:27.902Z,10.90
2022-10-05T21:04:41.982Z,11.12
2022-10-05T21:07:47.158Z,11.02
2022-10-05T21:10:53.908Z,11.40
2022-10-05T21:14:01.001Z,11.88
2022-10-05T21:17:13.109Z,11.10
2022-10-05T21:20:19.649Z,11.12
2022-10-05T21:23:26.672Z,11.77
2022-10-05T21:26:33.405Z,11.68
2022-10-05T21:29:37.421Z,11.73
2022-10-05T21:32:44.461Z,12.27
2022-10-05T21:35:50.875Z,12.05
2022-10-05T21:38:55.625Z,11.57
2022-10-05T21:42:03.859Z,12.70
2022-10-05T21:45:12.597Z,11.63
2022-10-05T21:48:20.666Z,11.38
2022-10-05T21:51:28.512Z,12.35
2022-10-05T21:54:35.808Z,12.52
2022-10-05T21:57:42.705Z,11.98
2022-10-05T22:00:53.672Z,12.10
2022-10-05T22:04:03.010Z,12.00
2022-10-05T22:07:20.365Z,12.77
2022-10-05T22:10:29.648Z,12.35
2022-10-05T22:13:44.056Z,12.70
2022-10-05T22:16:50.973Z,13.05
2022-10-05T22:19:57.946Z,11.70
2022-10-05T22:23:06.453Z,12.50
2022-10-05T22:26:19.138Z,12.85
2022-10-05T22:29:32.609Z,13.23
2022-10-05T22:32:39.983Z,12.48
2022-10-05T22:35:49.745Z,13.35
2022-10-05T22:38:58.425Z,13.25
2022-10-05T22:42:06.733Z,13.57
2022-10-05T22:45:15.933Z,13.60
2022-10-05T22:48:26.147Z,13.65
2022-10-05T22:51:33.323Z,14.38
2022-10-05T22:54:43.359Z,13.50
2022-10-05T22:57:55.195Z,13.88
2022-10-05T23:01:04.219Z,13.27
2022-10-05T23:04:11.370Z,13.25
2022-10-05T23:07:20.345Z,13.02
2022-10-05T23:10:29.519Z,13.62
2022-10-05T23:13:37.088Z,13.90
2022-10-05T23:16:44.967Z,13.07
2022-10-05T23:19:50.583Z,12.93
2022-10-05T23:22:58.187Z,13.18
2022-10-05T23:26:05.345Z,13.38
2022-10-05T23:29:10.718Z,11.95
2022-10-05T23:32:16.543Z,12.85
2022-10-05T23:35:19.796Z,11.98
2022-10-05T23:38:25.246Z,12.75
2022-10-05T23:41:34.471Z,13.02
2022-10-05T23:44:41.957Z,12.32
2022-10-05T23:47:49.278Z,11.98
2022-10-05T23:50:57.101Z,11.07
2022-10-05T23:54:06.274Z,11.38
2022-10-05T23:57:19.605Z,11.98
